Wapella, Canada
Current Conditions -  °F | °C
As of 7:00 AM on Saturday 20 Dec 2014 (Local Time) from CYQV Reporting Station
Overcast Overcast  
Wind Chill:   Ceiling: 300
Heat Index: 19°   Visibility: 9mi
Dew Point: 19°   Wind: 9mph
Humidity: 100%   Direction: 160°SSE
Pressure: 29.86"   Gusts: NA
Location:  50.25°N, 101.97°W
Report Text: CYQV 201300Z AUTO 16008KT 9SM OVC003 M07/M07 A2986 RMK SLP147
Loading
Personal Weather Stations






























Interactive Weather Map New forecast layout! Learn more

10-Day Weather Forecast

Advertisements
Track Severe Weather on mobile